Time;durP1;ratioP1;P1;durP2;ratioP2;P2;SDS_P1;SDS_P2;PMS_P1;PMS_P2;Temp;Humidity;BMP_temperature;BMP_pressure;BME280_temperature;BME280_humidity;BME280_pressure;Samples;Min_cycle;Max_cycle;Signal;HPM_P1;HPM_P2
2022/05/07 00:00:34;;;;;;;0.10;0.10;;;11.90;99.90;;;;;;5117409;28;20103;-92
2022/05/07 00:03:01;;;;;;;0.15;0.15;;;11.90;99.90;;;;;;5131151;28;20136;-86
2022/05/07 00:05:27;;;;;;;0.10;0.10;;;11.90;99.90;;;;;;5133861;28;20035;-92
2022/05/07 00:07:54;;;;;;;0.10;0.10;;;11.90;99.90;;;;;;5116749;28;20052;-91
2022/05/07 00:10:21;;;;;;;0.35;0.20;;;11.90;99.90;;;;;;5101374;28;20039;-91
2022/05/07 00:12:47;;;;;;;0.10;0.10;;;11.90;99.90;;;;;;5113402;28;20067;-91
2022/05/07 00:15:14;;;;;;;0.00;0.00;;;11.90;99.90;;;;;;5097854;28;20091;-92
2022/05/07 00:20:26;;;;;;;0.10;0.10;;;11.80;99.90;;;;;;5130334;28;20048;-92
2022/05/07 00:22:54;;;;;;;0.03;0.03;;;11.90;99.90;;;;;;5097207;28;20079;-92
2022/05/07 00:25:21;;;;;;;0.10;0.10;;;11.90;99.90;;;;;;5113114;28;20550;-86
2022/05/07 00:27:47;;;;;;;0.00;0.00;;;11.90;99.90;;;;;;5080021;28;20032;-86
2022/05/07 00:30:14;;;;;;;0.30;0.10;;;11.90;99.90;;;;;;5080088;28;20394;-91
2022/05/07 00:32:41;;;;;;;0.10;0.10;;;12.00;99.90;;;;;;5096060;28;20508;-86
2022/05/07 00:35:10;;;;;;;0.32;0.28;;;12.00;99.90;;;;;;5078012;28;20036;-86
2022/05/07 00:37:38;;;;;;;0.43;0.17;;;12.00;99.90;;;;;;5127048;28;20075;-86
2022/05/07 00:40:05;;;;;;;0.10;0.10;;;12.10;99.90;;;;;;5112870;28;20131;-92
2022/05/07 00:42:32;;;;;;;0.20;0.20;;;12.10;99.90;;;;;;5112638;28;20067;-86
2022/05/07 00:44:59;;;;;;;0.10;0.10;;;12.10;99.90;;;;;;5091679;28;20812;-86
2022/05/07 00:47:28;;;;;;;0.00;0.00;;;12.10;99.90;;;;;;5079523;28;20040;-92
2022/05/07 00:51:33;;;;;;;0.15;0.08;;;12.10;99.90;;;;;;5113071;28;20147;-86
2022/05/07 00:52:44;;;;;;;0.30;0.30;;;12.20;99.90;;;;;;5130452;28;20432;-92
2022/05/07 00:55:12;;;;;;;0.10;0.10;;;12.20;99.90;;;;;;5129045;28;20044;-91
2022/05/07 00:57:39;;;;;;;0.15;0.15;;;12.20;99.90;;;;;;5096537;28;20036;-92
2022/05/07 01:00:08;;;;;;;0.00;0.00;;;12.20;99.90;;;;;;5095217;28;20051;-86
2022/05/07 01:02:38;;;;;;;0.15;0.10;;;12.20;99.90;;;;;;5095629;28;20493;-90
2022/05/07 01:05:06;;;;;;;0.08;0.08;;;12.30;99.90;;;;;;5096055;28;20044;-91
2022/05/07 01:07:36;;;;;;;0.10;0.10;;;12.20;99.90;;;;;;5131852;28;20043;-86
2022/05/07 01:10:04;;;;;;;0.40;0.30;;;11.90;99.90;;;;;;5132490;28;20549;-86
2022/05/07 01:12:31;;;;;;;0.13;0.13;;;12.20;99.90;;;;;;5132481;28;20438;-91
2022/05/07 01:15:00;;;;;;;0.10;0.10;;;12.20;99.90;;;;;;5126543;28;20567;-92
2022/05/07 01:17:31;;;;;;;0.20;0.20;;;12.30;99.90;;;;;;5112564;28;20542;-86
2022/05/07 01:19:58;;;;;;;0.15;0.10;;;12.30;99.90;;;;;;5111458;28;20123;-86
2022/05/07 01:22:26;;;;;;;0.75;0.20;;;12.30;99.90;;;;;;5108670;28;20119;-86
2022/05/07 01:24:52;;;;;;;0.10;0.10;;;12.30;99.90;;;;;;5128926;28;20388;-86
2022/05/07 01:27:19;;;;;;;0.10;0.10;;;12.20;99.90;;;;;;5095563;28;20032;-91
2022/05/07 01:29:47;;;;;;;0.20;0.20;;;12.30;99.90;;;;;;5095293;28;20442;-86
2022/05/07 01:32:14;;;;;;;0.10;0.10;;;12.30;99.90;;;;;;5078652;28;20046;-92
2022/05/07 01:34:40;;;;;;;0.10;0.10;;;12.30;99.90;;;;;;5086266;28;20461;-91
2022/05/07 01:37:07;;;;;;;0.00;0.00;;;12.30;99.90;;;;;;5112290;28;20075;-86
2022/05/07 01:39:34;;;;;;;0.10;0.10;;;12.30;99.90;;;;;;5112454;28;20040;-87
2022/05/07 01:42:00;;;;;;;0.00;0.00;;;12.20;99.90;;;;;;5111501;28;20039;-91
2022/05/07 01:44:27;;;;;;;0.00;0.00;;;12.20;99.90;;;;;;5112261;28;20044;-92
2022/05/07 01:49:39;;;;;;;0.10;0.10;;;12.20;99.90;;;;;;5114790;28;20082;-86
2022/05/07 01:52:07;;;;;;;0.32;0.32;;;12.10;99.90;;;;;;5111359;28;20485;-86
2022/05/07 01:54:34;;;;;;;0.00;0.00;;;12.10;99.90;;;;;;5078182;28;20036;-86
2022/05/07 01:57:00;;;;;;;3.10;0.43;;;12.10;99.90;;;;;;5096178;28;20180;-86
2022/05/07 01:59:27;;;;;;;0.10;0.10;;;12.20;99.90;;;;;;5131367;28;20139;-92
2022/05/07 02:01:54;;;;;;;0.00;0.00;;;12.10;99.90;;;;;;5115025;28;20054;-92
2022/05/07 02:04:20;;;;;;;0.00;0.00;;;12.10;99.90;;;;;;5131624;28;20043;-93
2022/05/07 02:06:47;;;;;;;0.73;0.30;;;12.10;99.90;;;;;;5098234;28;20031;-92
2022/05/07 02:09:14;;;;;;;0.00;0.00;;;12.10;99.90;;;;;;5110905;28;20035;-85
2022/05/07 02:11:42;;;;;;;0.10;0.10;;;12.00;99.90;;;;;;5095012;28;20040;-92
2022/05/07 02:14:12;;;;;;;0.15;0.15;;;12.00;99.90;;;;;;5095129;28;20101;-86
2022/05/07 02:16:38;;;;;;;0.00;0.00;;;12.10;99.90;;;;;;5120925;28;20031;-92
2022/05/07 02:19:05;;;;;;;0.10;0.10;;;12.00;99.90;;;;;;5098168;28;20109;-86
2022/05/07 02:21:32;;;;;;;0.17;0.17;;;12.10;99.90;;;;;;5121158;28;20416;-93
2022/05/07 02:23:58;;;;;;;0.10;0.10;;;12.00;99.90;;;;;;5094543;28;20054;-91
2022/05/07 02:26:25;;;;;;;0.00;0.00;;;12.00;99.90;;;;;;5111395;28;20040;-91
2022/05/07 02:28:52;;;;;;;0.10;0.10;;;12.00;99.90;;;;;;5094267;28;20032;-86
2022/05/07 02:31:18;;;;;;;0.10;0.10;;;12.00;99.90;;;;;;5094296;28;20071;-92
2022/05/07 02:33:45;;;;;;;0.17;0.05;;;11.80;99.90;;;;;;5094907;28;20067;-86
2022/05/07 02:36:12;;;;;;;0.00;0.00;;;12.00;99.90;;;;;;5104060;28;20092;-92
2022/05/07 02:38:39;;;;;;;0.15;0.15;;;12.00;99.90;;;;;;5098498;28;20031;-92
2022/05/07 02:43:51;;;;;;;0.25;0.20;;;12.00;99.90;;;;;;5134530;28;20040;-85
2022/05/07 02:46:18;;;;;;;0.10;0.10;;;12.00;99.90;;;;;;5130384;28;20043;-86
2022/05/07 02:48:45;;;;;;;0.20;0.20;;;12.00;99.90;;;;;;5113762;28;20093;-85
2022/05/07 02:51:12;;;;;;;0.10;0.10;;;12.00;99.90;;;;;;5097718;28;20032;-92
2022/05/07 02:53:39;;;;;;;0.10;0.10;;;12.00;99.90;;;;;;5114864;28;20498;-93
2022/05/07 02:56:07;;;;;;;0.10;0.10;;;12.00;99.90;;;;;;5097407;28;20032;-86
2022/05/07 02:58:33;;;;;;;0.10;0.10;;;12.00;99.90;;;;;;5131380;28;20032;-92
2022/05/07 03:01:00;;;;;;;0.75;0.30;;;12.00;99.90;;;;;;5096929;28;20498;-86
2022/05/07 03:03:27;;;;;;;0.10;0.10;;;12.00;99.90;;;;;;5113376;28;20043;-86
2022/05/07 03:05:55;;;;;;;0.10;0.10;;;12.00;99.90;;;;;;5130596;28;20084;-86
2022/05/07 03:08:23;;;;;;;0.20;0.20;;;12.00;99.90;;;;;;5097124;28;20036;-92
2022/05/07 03:10:50;;;;;;;0.52;0.47;;;12.00;99.90;;;;;;5114566;28;20108;-92
2022/05/07 03:13:17;;;;;;;0.10;0.10;;;12.00;99.90;;;;;;5114833;28;20036;-86
2022/05/07 03:15:44;;;;;;;0.10;0.10;;;12.00;99.90;;;;;;5096692;28;20488;-86
2022/05/07 03:18:12;;;;;;;0.13;0.13;;;12.00;99.90;;;;;;5077107;28;20048;-86
2022/05/07 03:20:40;;;;;;;0.20;0.10;;;12.00;99.90;;;;;;5093912;28;20481;-92
2022/05/07 03:23:07;;;;;;;0.28;0.20;;;12.00;99.90;;;;;;5077953;28;20040;-92
2022/05/07 03:25:34;;;;;;;0.10;0.10;;;12.00;99.90;;;;;;5111039;28;20515;-92
2022/05/07 03:28:00;;;;;;;0.08;0.05;;;12.10;99.90;;;;;;5094908;28;20097;-85
2022/05/07 03:30:27;;;;;;;0.10;0.10;;;12.00;99.90;;;;;;5110176;28;20139;-86
2022/05/07 03:32:54;;;;;;;0.10;0.10;;;12.00;99.90;;;;;;5093721;28;20514;-91
2022/05/07 03:35:21;;;;;;;0.10;0.10;;;12.00;99.90;;;;;;5093798;28;20046;-86
2022/05/07 03:37:48;;;;;;;0.20;0.13;;;12.10;99.90;;;;;;5101462;28;20044;-86
2022/05/07 03:40:14;;;;;;;0.15;0.15;;;12.00;99.90;;;;;;5130684;28;20108;-91
2022/05/07 03:42:43;;;;;;;0.13;0.13;;;12.00;99.90;;;;;;5113903;28;20047;-92
2022/05/07 03:45:10;;;;;;;0.10;0.10;;;12.00;99.90;;;;;;5113444;28;20780;-85
2022/05/07 03:47:37;;;;;;;0.28;0.25;;;12.00;99.90;;;;;;5112619;28;20401;-86
2022/05/07 03:50:04;;;;;;;0.10;0.10;;;12.10;99.90;;;;;;5097191;28;20039;-91
2022/05/07 03:55:16;;;;;;;0.10;0.10;;;12.00;99.90;;;;;;5118459;28;20043;-85
2022/05/07 03:57:43;;;;;;;0.03;0.03;;;12.10;99.90;;;;;;5114024;28;20101;-91
2022/05/07 04:00:11;;;;;;;0.10;0.10;;;12.10;99.90;;;;;;5093203;28;20043;-92
2022/05/07 04:02:38;;;;;;;0.22;0.22;;;12.10;99.90;;;;;;5092778;28;20055;-85
2022/05/07 04:05:05;;;;;;;0.13;0.13;;;12.10;99.90;;;;;;5093043;28;20047;-90
2022/05/07 04:07:32;;;;;;;0.10;0.10;;;12.10;99.90;;;;;;5092855;28;20039;-86
2022/05/07 04:09:59;;;;;;;0.03;0.03;;;12.10;99.90;;;;;;5096257;28;20074;-86
2022/05/07 04:12:25;;;;;;;0.10;0.10;;;12.20;99.90;;;;;;5096747;28;20051;-92
2022/05/07 04:14:52;;;;;;;0.10;0.10;;;12.10;99.90;;;;;;5096374;28;20039;-85
2022/05/07 04:17:19;;;;;;;0.10;0.10;;;12.20;99.90;;;;;;5095940;28;20575;-86
2022/05/07 04:19:45;;;;;;;0.10;0.10;;;12.20;99.90;;;;;;5101737;28;20040;-92
2022/05/07 04:22:12;;;;;;;0.00;0.00;;;12.10;99.90;;;;;;5080518;28;20408;-92
2022/05/07 04:24:39;;;;;;;0.10;0.10;;;12.20;99.90;;;;;;5095859;28;20325;-86
2022/05/07 04:27:07;;;;;;;0.03;0.03;;;12.10;99.90;;;;;;5096325;28;20465;-86
2022/05/07 04:29:33;;;;;;;0.10;0.10;;;12.10;99.90;;;;;;5096049;28;20048;-91
2022/05/07 04:32:00;;;;;;;0.00;0.00;;;12.10;99.90;;;;;;5096739;28;20148;-92
2022/05/07 04:34:29;;;;;;;0.10;0.10;;;12.20;99.90;;;;;;5096101;28;20054;-85
2022/05/07 04:36:56;;;;;;;0.25;0.20;;;12.10;99.90;;;;;;5112792;28;20042;-91
2022/05/07 04:39:23;;;;;;;0.17;0.17;;;12.10;99.90;;;;;;5096564;28;20790;-85
2022/05/07 04:41:50;;;;;;;0.60;0.30;;;12.20;99.90;;;;;;5079341;28;20131;-90
2022/05/07 04:44:16;;;;;;;0.08;0.08;;;12.20;99.90;;;;;;5080630;28;20035;-86
2022/05/07 04:46:43;;;;;;;0.20;0.20;;;12.20;99.90;;;;;;5079557;28;20378;-86
2022/05/07 04:49:10;;;;;;;0.13;0.13;;;12.20;99.90;;;;;;5095809;28;20048;-91
2022/05/07 04:51:37;;;;;;;0.20;0.20;;;12.20;99.90;;;;;;5081366;28;20043;-86
2022/05/07 04:54:04;;;;;;;0.10;0.10;;;12.20;99.90;;;;;;5080310;28;20405;-86
2022/05/07 04:56:30;;;;;;;0.10;0.10;;;12.20;99.90;;;;;;5095313;28;20040;-87
2022/05/07 04:58:57;;;;;;;0.20;0.20;;;12.20;99.90;;;;;;5079254;28;20047;-85
2022/05/07 05:01:24;;;;;;;0.00;0.00;;;12.30;99.90;;;;;;5080737;28;20052;-86
2022/05/07 05:03:50;;;;;;;0.10;0.10;;;12.30;99.90;;;;;;5096174;28;20036;-91
2022/05/07 05:06:17;;;;;;;0.25;0.20;;;12.30;99.90;;;;;;5095955;28;20044;-92
2022/05/07 05:08:44;;;;;;;0.20;0.20;;;12.30;99.90;;;;;;5096174;28;20036;-92
2022/05/07 05:11:10;;;;;;;0.10;0.10;;;12.40;99.90;;;;;;5095277;28;20046;-92
2022/05/07 05:13:37;;;;;;;0.20;0.20;;;12.40;99.90;;;;;;5111824;28;20032;-92
2022/05/07 05:16:04;;;;;;;0.20;0.20;;;12.50;99.90;;;;;;5095249;28;20040;-91
2022/05/07 05:18:30;;;;;;;0.30;0.20;;;12.60;99.90;;;;;;5094884;28;20040;-86
2022/05/07 05:21:00;;;;;;;0.00;0.00;;;12.60;99.90;;;;;;5095452;28;20052;-86
2022/05/07 05:23:26;;;;;;;0.00;0.00;;;12.70;99.90;;;;;;5105270;28;20044;-92
2022/05/07 05:25:53;;;;;;;0.30;0.30;;;12.70;99.90;;;;;;5112936;28;20520;-91
2022/05/07 05:28:20;;;;;;;0.47;0.40;;;12.70;99.90;;;;;;5112860;28;20084;-91
2022/05/07 05:30:51;;;;;;;0.40;0.28;;;12.80;99.90;;;;;;5128191;28;20044;-86
2022/05/07 05:33:21;;;;;;;0.35;0.22;;;12.90;99.90;;;;;;5112473;28;20126;-86
2022/05/07 05:35:48;;;;;;;0.00;0.00;;;12.80;99.90;;;;;;5134924;28;20403;-91
2022/05/07 05:38:15;;;;;;;0.10;0.10;;;12.90;99.90;;;;;;5101392;28;20481;-92
2022/05/07 05:40:42;;;;;;;0.10;0.10;;;12.90;99.90;;;;;;5083623;28;20047;-86
2022/05/07 05:43:09;;;;;;;0.20;0.20;;;12.90;99.90;;;;;;5083446;28;20036;-85
2022/05/07 05:45:37;;;;;;;0.00;0.00;;;12.90;99.90;;;;;;5111398;28;20032;-91
2022/05/07 05:48:04;;;;;;;0.08;0.08;;;13.00;99.90;;;;;;5111349;28;20031;-86
2022/05/07 05:50:31;;;;;;;0.00;0.00;;;13.00;99.90;;;;;;5095104;28;20044;-87
2022/05/07 05:52:59;;;;;;;0.10;0.10;;;12.90;99.90;;;;;;5103512;28;20040;-91
2022/05/07 05:55:25;;;;;;;0.10;0.10;;;13.00;99.90;;;;;;5105863;28;20071;-86
2022/05/07 05:57:52;;;;;;;0.20;0.10;;;13.00;99.90;;;;;;5111446;28;20050;-86
2022/05/07 06:00:19;;;;;;;0.10;0.10;;;13.10;99.90;;;;;;5100176;28;20094;-86
2022/05/07 06:02:47;;;;;;;0.13;0.13;;;13.10;99.90;;;;;;5097483;28;20052;-86
2022/05/07 06:05:17;;;;;;;0.08;0.08;;;13.20;99.90;;;;;;5096880;28;20420;-91
2022/05/07 06:07:44;;;;;;;0.00;0.00;;;13.20;99.90;;;;;;5126503;28;20039;-92
2022/05/07 06:10:11;;;;;;;0.15;0.15;;;13.30;99.90;;;;;;5081418;28;20043;-86
2022/05/07 06:12:37;;;;;;;0.10;0.10;;;13.30;99.90;;;;;;5094684;28;20062;-92
2022/05/07 06:15:05;;;;;;;0.10;0.10;;;13.40;99.90;;;;;;5096850;28;20093;-87
2022/05/07 06:17:32;;;;;;;0.00;0.00;;;13.40;99.90;;;;;;5078513;28;20047;-87
2022/05/07 06:19:59;;;;;;;0.10;0.10;;;13.50;99.90;;;;;;5113681;28;20036;-92
2022/05/07 06:22:25;;;;;;;0.20;0.20;;;13.50;99.90;;;;;;5094840;28;20054;-91
2022/05/07 06:27:37;;;;;;;0.03;0.03;;;13.60;99.90;;;;;;5102651;28;20032;-90
2022/05/07 06:30:05;;;;;;;0.13;0.13;;;13.70;99.90;;;;;;5085652;28;20028;-92
2022/05/07 06:32:35;;;;;;;0.00;0.00;;;13.80;99.90;;;;;;5128098;28;20063;-91
2022/05/07 06:35:03;;;;;;;0.00;0.00;;;13.80;99.90;;;;;;5101759;28;20036;-92
2022/05/07 06:37:34;;;;;;;0.10;0.10;;;13.90;99.90;;;;;;5102356;28;20048;-89
2022/05/07 06:40:03;;;;;;;0.00;0.00;;;13.90;99.90;;;;;;5110575;28;20086;-88
2022/05/07 06:42:30;;;;;;;0.00;0.00;;;14.00;99.90;;;;;;5096847;28;20416;-87
2022/05/07 06:44:57;;;;;;;0.08;0.08;;;14.00;99.90;;;;;;5114314;28;20036;-91
2022/05/07 06:47:24;;;;;;;0.10;0.10;;;14.10;99.90;;;;;;5114496;28;20040;-88
2022/05/07 06:49:50;;;;;;;0.10;0.10;;;14.20;99.90;;;;;;5093893;28;20043;-88
2022/05/07 06:52:18;;;;;;;0.30;0.20;;;14.20;99.90;;;;;;5094227;28;20048;-88
2022/05/07 06:54:45;;;;;;;0.00;0.00;;;14.30;99.90;;;;;;5094202;28;20101;-88
2022/05/07 06:57:12;;;;;;;0.80;0.38;;;14.30;99.90;;;;;;5115386;28;20035;-90
2022/05/07 06:59:38;;;;;;;0.25;0.25;;;14.40;99.90;;;;;;5106758;28;20412;-92
2022/05/07 07:02:05;;;;;;;0.10;0.10;;;14.40;99.90;;;;;;5117577;28;20052;-88
2022/05/07 07:04:32;;;;;;;0.10;0.10;;;14.50;99.90;;;;;;5127744;28;20039;-87
2022/05/07 07:06:58;;;;;;;0.20;0.20;;;14.50;99.90;;;;;;5094327;28;20036;-87
2022/05/07 07:09:25;;;;;;;0.20;0.20;;;14.50;99.90;;;;;;5077386;28;20056;-88
2022/05/07 07:11:52;;;;;;;0.10;0.10;;;14.60;99.90;;;;;;5093912;28;20054;-89
2022/05/07 07:14:18;;;;;;;0.17;0.17;;;14.70;99.90;;;;;;5093927;28;20413;-89
2022/05/07 07:16:45;;;;;;;0.32;0.32;;;14.70;99.90;;;;;;5093795;28;20040;-87
2022/05/07 07:19:15;;;;;;;0.25;0.13;;;14.80;99.90;;;;;;5077061;28;20040;-88
2022/05/07 07:21:43;;;;;;;0.17;0.15;;;14.90;99.90;;;;;;5110516;28;20036;-86
2022/05/07 07:24:10;;;;;;;0.10;0.10;;;15.00;99.90;;;;;;5077858;28;20036;-89
2022/05/07 07:26:37;;;;;;;0.10;0.10;;;15.10;99.90;;;;;;5110646;28;20127;-88
2022/05/07 07:29:04;;;;;;;0.15;0.15;;;15.20;99.90;;;;;;5093782;28;20549;-88
2022/05/07 07:31:31;;;;;;;0.20;0.20;;;15.30;99.90;;;;;;5093708;28;20080;-88
2022/05/07 07:33:58;;;;;;;0.20;0.20;;;15.30;99.90;;;;;;5126672;28;20055;-88
2022/05/07 07:36:26;;;;;;;0.15;0.08;;;15.40;99.90;;;;;;5077165;28;20040;-88
2022/05/07 07:38:53;;;;;;;0.28;0.22;;;15.40;99.90;;;;;;5093268;28;20036;-88
2022/05/07 07:41:20;;;;;;;0.70;0.40;;;15.50;99.90;;;;;;5093463;28;20040;-88
2022/05/07 07:43:46;;;;;;;0.32;0.25;;;15.40;99.90;;;;;;5077677;28;20047;-87
2022/05/07 07:48:59;;;;;;;0.50;0.40;;;15.40;99.90;;;;;;5130321;28;20120;-88
2022/05/07 07:51:26;;;;;;;0.40;0.35;;;15.50;99.90;;;;;;5097097;28;20123;-88
2022/05/07 07:53:53;;;;;;;0.63;0.30;;;15.50;99.90;;;;;;5080425;28;20044;-89
2022/05/07 07:56:19;;;;;;;0.20;0.10;;;15.70;99.90;;;;;;5080549;28;20068;-89
2022/05/07 07:58:46;;;;;;;0.30;0.30;;;15.70;99.90;;;;;;5113779;28;20039;-91
2022/05/07 08:01:13;;;;;;;0.22;0.20;;;15.80;99.90;;;;;;5097136;28;20127;-93
2022/05/07 08:03:40;;;;;;;1.05;0.47;;;15.80;99.90;;;;;;5080941;28;20078;-92
2022/05/07 08:06:06;;;;;;;0.98;0.43;;;15.90;99.90;;;;;;5097130;28;20050;-91
2022/05/07 08:14:03;;;;;;;0.65;0.60;;;16.10;99.90;;;;;;5115384;28;20043;-87
2022/05/07 08:16:30;;;;;;;0.98;0.50;;;16.30;99.90;;;;;;5080442;28;20431;-88
2022/05/07 08:18:57;;;;;;;0.40;0.38;;;16.30;99.90;;;;;;5080225;28;20486;-88
2022/05/07 08:21:24;;;;;;;0.52;0.43;;;16.40;99.90;;;;;;5096965;28;20048;-89
2022/05/07 08:23:51;;;;;;;1.40;0.75;;;16.40;99.90;;;;;;5096780;28;20451;-88
2022/05/07 08:26:18;;;;;;;1.00;0.43;;;16.60;99.90;;;;;;5096609;28;20047;-89
2022/05/07 08:28:45;;;;;;;1.30;0.82;;;16.70;99.90;;;;;;5130230;28;20492;-88
2022/05/07 08:31:12;;;;;;;1.00;0.68;;;16.80;99.90;;;;;;5129816;28;20036;-89
2022/05/07 08:33:43;;;;;;;1.50;0.82;;;16.80;99.90;;;;;;5080085;28;20132;-90
2022/05/07 08:36:11;;;;;;;1.75;0.63;;;16.90;99.90;;;;;;5112871;28;20072;-87
2022/05/07 08:38:38;;;;;;;0.47;0.38;;;17.00;99.90;;;;;;5112915;28;20043;-90
2022/05/07 08:41:05;;;;;;;1.30;0.80;;;17.10;99.90;;;;;;5112920;28;20398;-90
2022/05/07 08:43:36;;;;;;;1.02;0.73;;;17.00;99.90;;;;;;5098966;28;20090;-87
2022/05/07 08:46:18;;;;;;;1.10;0.63;;;17.00;99.90;;;;;;5120268;28;20101;-88
2022/05/07 08:48:46;;;;;;;1.40;0.80;;;17.00;99.90;;;;;;5109257;28;20044;-87
2022/05/07 08:51:19;;;;;;;0.70;0.50;;;16.90;99.90;;;;;;5112374;28;20082;-87
2022/05/07 08:53:53;;;;;;;1.15;0.80;;;16.90;99.90;;;;;;5129309;28;20047;-87
2022/05/07 08:56:21;;;;;;;1.15;0.88;;;16.90;99.90;;;;;;5095881;28;20044;-87
2022/05/07 08:58:53;;;;;;;1.48;0.80;;;16.90;99.90;;;;;;5109874;28;20152;-90
2022/05/07 09:01:20;;;;;;;1.60;1.02;;;17.00;99.90;;;;;;5132899;28;20036;-89
2022/05/07 09:03:48;;;;;;;1.50;0.77;;;17.10;99.90;;;;;;5115787;28;20060;-87
2022/05/07 09:06:27;;;;;;;1.90;0.82;;;17.10;99.90;;;;;;5115435;28;20108;-90
2022/05/07 09:08:55;;;;;;;0.57;0.47;;;17.20;99.90;;;;;;5111953;28;20114;-88
2022/05/07 09:11:22;;;;;;;1.27;0.80;;;17.50;99.90;;;;;;5132412;28;20075;-88
2022/05/07 09:14:05;;;;;;;1.45;0.88;;;17.60;99.90;;;;;;5115058;28;20070;-90
2022/05/07 09:16:45;;;;;;;2.00;1.23;;;17.90;99.90;;;;;;5132972;28;20431;-87
2022/05/07 09:19:30;;;;;;;2.05;0.98;;;18.20;99.90;;;;;;5132070;28;20066;-91
2022/05/07 09:22:11;;;;;;;0.88;0.65;;;18.30;99.90;;;;;;5132719;28;20047;-91
2022/05/07 09:24:38;;;;;;;1.63;0.90;;;18.40;99.90;;;;;;5094407;28;20054;-85
2022/05/07 09:27:06;;;;;;;1.42;0.65;;;18.40;99.90;;;;;;5094801;28;20459;-85
2022/05/07 09:29:33;;;;;;;2.58;1.13;;;18.40;99.90;;;;;;5129688;28;20043;-85
2022/05/07 09:32:14;;;;;;;1.20;0.70;;;18.50;99.90;;;;;;5114454;28;20097;-86
2022/05/07 09:37:39;;;;;;;1.88;1.20;;;18.40;99.90;;;;;;5148867;28;20054;-87
2022/05/07 09:40:08;;;;;;;2.80;1.35;;;18.40;99.90;;;;;;5130716;28;20048;-85
2022/05/07 09:42:35;;;;;;;2.13;1.02;;;18.30;99.90;;;;;;5111928;28;20127;-87
2022/05/07 09:45:03;;;;;;;1.83;1.13;;;18.30;99.90;;;;;;5110178;28;20149;-86
2022/05/07 09:47:31;;;;;;;1.52;0.68;;;18.30;99.90;;;;;;5110950;28;20043;-87
2022/05/07 09:58:20;;;;;;;2.35;1.08;;;18.30;99.90;;;;;;5148441;28;20530;-85
2022/05/07 10:01:20;;;;;;;2.40;1.15;;;18.30;99.90;;;;;;5114150;28;20051;-86
2022/05/07 10:04:06;;;;;;;2.80;1.58;;;18.40;99.90;;;;;;5130964;28;20075;-85
2022/05/07 10:06:44;;;;;;;2.17;1.20;;;18.30;99.90;;;;;;5110048;28;20044;-86
2022/05/07 10:09:39;;;;;;;1.35;1.00;;;18.20;99.90;;;;;;5110601;28;20054;-86
2022/05/07 10:12:08;;;;;;;3.65;1.38;;;18.10;99.90;;;;;;5130103;28;20039;-86
2022/05/07 10:14:34;;;;;;;4.07;1.50;;;18.00;99.90;;;;;;5114582;28;20039;-88
2022/05/07 10:17:08;;;;;;;1.23;0.82;;;17.90;99.90;;;;;;5147611;28;20369;-85
2022/05/07 10:19:40;;;;;;;1.88;1.05;;;17.90;99.90;;;;;;5130679;28;20438;-86
2022/05/07 10:22:24;;;;;;;1.42;1.10;;;18.00;99.90;;;;;;5130236;28;20039;-86
2022/05/07 10:25:08;;;;;;;1.50;0.98;;;18.00;99.90;;;;;;5130322;28;20373;-85
2022/05/07 10:27:36;;;;;;;2.00;1.13;;;18.20;99.90;;;;;;5130538;28;20077;-85
2022/05/07 10:30:23;;;;;;;1.38;0.73;;;18.20;99.90;;;;;;5130794;28;20042;-87
2022/05/07 10:33:03;;;;;;;3.88;1.42;;;18.30;99.90;;;;;;5113744;28;20047;-86
2022/05/07 10:35:44;;;;;;;2.75;1.27;;;18.30;99.90;;;;;;5130004;28;20042;-86
2022/05/07 10:38:27;;;;;;;2.72;1.40;;;18.30;99.90;;;;;;5139842;28;20411;-86
2022/05/07 10:40:54;;;;;;;2.38;1.08;;;18.30;99.90;;;;;;5137215;28;20837;-85
2022/05/07 10:43:38;;;;;;;1.73;1.10;;;18.20;99.90;;;;;;5134567;28;20127;-87
2022/05/07 10:46:15;;;;;;;1.77;1.05;;;18.20;99.90;;;;;;5139737;28;20040;-85
2022/05/07 10:48:51;;;;;;;2.53;1.38;;;18.20;99.90;;;;;;5133365;28;20548;-87
2022/05/07 10:51:17;;;;;;;2.85;1.20;;;18.20;99.90;;;;;;5133130;28;20126;-86
2022/05/07 10:53:44;;;;;;;2.90;1.33;;;18.30;99.90;;;;;;5130404;28;20134;-86
2022/05/07 10:56:19;;;;;;;3.45;1.33;;;18.20;99.90;;;;;;5113956;28;20074;-87
2022/05/07 10:58:53;;;;;;;3.67;1.50;;;18.20;99.90;;;;;;5113733;28;20047;-87
2022/05/07 11:01:22;;;;;;;3.28;1.20;;;18.10;99.90;;;;;;5112942;28;20564;-87
2022/05/07 11:04:07;;;;;;;2.10;1.20;;;18.00;99.90;;;;;;5130681;28;20087;-87
2022/05/07 11:06:40;;;;;;;0.73;0.50;;;18.10;99.90;;;;;;5130672;28;20071;-87
2022/05/07 11:09:14;;;;;;;2.20;1.05;;;18.20;99.90;;;;;;5130823;28;20040;-88
2022/05/07 11:11:46;;;;;;;1.75;1.08;;;18.20;99.90;;;;;;5130368;28;20443;-86
2022/05/07 11:14:28;;;;;;;2.58;1.15;;;18.20;99.90;;;;;;5113869;28;20034;-86
2022/05/07 11:16:56;;;;;;;4.55;1.02;;;18.20;99.90;;;;;;5129868;28;20046;-87
2022/05/07 11:19:26;;;;;;;3.72;1.35;;;18.20;99.90;;;;;;5116814;28;20050;-87
2022/05/07 11:21:55;;;;;;;2.00;1.10;;;18.20;99.90;;;;;;5134288;28;20050;-86
2022/05/07 11:24:22;;;;;;;4.13;1.30;;;18.30;99.90;;;;;;5117318;28;20032;-87
2022/05/07 11:26:53;;;;;;;1.83;0.98;;;18.20;99.90;;;;;;5117851;28;20118;-87
2022/05/07 11:29:20;;;;;;;4.75;1.33;;;18.20;99.90;;;;;;5117715;28;20477;-86
2022/05/07 11:31:55;;;;;;;3.33;1.10;;;18.20;99.90;;;;;;5117261;28;20035;-86
2022/05/07 11:34:31;;;;;;;2.88;1.30;;;18.20;99.90;;;;;;5133399;28;20032;-87
2022/05/07 11:37:21;;;;;;;1.67;0.95;;;18.20;99.90;;;;;;5133875;28;20028;-87
2022/05/07 11:39:58;;;;;;;1.00;0.70;;;18.20;99.90;;;;;;5117108;28;20038;-87
2022/05/07 11:42:46;;;;;;;1.25;0.80;;;18.20;99.90;;;;;;5134050;28;20082;-87
2022/05/07 11:45:31;;;;;;;2.55;1.30;;;18.20;99.90;;;;;;5116929;28;20043;-86
2022/05/07 11:48:23;;;;;;;3.63;0.70;;;18.30;99.90;;;;;;5134125;28;20183;-87
2022/05/07 11:50:52;;;;;;;3.70;1.30;;;18.20;99.90;;;;;;5134017;28;20579;-87
2022/05/07 11:53:21;;;;;;;2.13;0.88;;;18.10;99.90;;;;;;5133527;28;20082;-86
2022/05/07 11:55:49;;;;;;;2.33;1.08;;;18.20;99.90;;;;;;5133772;28;20046;-87
2022/05/07 11:58:22;;;;;;;1.73;0.95;;;18.20;99.90;;;;;;5133456;28;20087;-86
2022/05/07 12:00:55;;;;;;;1.83;1.05;;;18.30;99.90;;;;;;5117299;28;20073;-87
2022/05/07 12:03:27;;;;;;;2.08;1.00;;;18.40;99.90;;;;;;5116258;28;20051;-87
2022/05/07 12:05:56;;;;;;;4.35;1.58;;;18.70;99.90;;;;;;5116840;28;20045;-85
2022/05/07 12:08:29;;;;;;;2.08;1.10;;;18.90;99.90;;;;;;5133355;28;20773;-86
2022/05/07 12:10:56;;;;;;;2.30;1.05;;;19.00;99.90;;;;;;5133381;28;20035;-86
2022/05/07 12:13:24;;;;;;;1.73;0.95;;;19.00;99.90;;;;;;5099629;28;20043;-86
2022/05/07 12:18:39;;;;;;;1.98;1.00;;;18.70;99.90;;;;;;5135347;28;20477;-87
2022/05/07 12:21:06;;;;;;;0.52;0.32;;;18.50;99.90;;;;;;5116448;28;20043;-86
2022/05/07 12:31:55;;;;;;;0.98;0.40;;;18.20;99.90;;;;;;5135742;28;20084;-86
2022/05/07 12:34:22;;;;;;;1.27;0.75;;;18.00;99.90;;;;;;5116865;28;20042;-85
2022/05/07 12:36:49;;;;;;;1.40;0.68;;;17.80;99.90;;;;;;5099106;28;20040;-86
2022/05/07 12:39:16;;;;;;;1.33;0.70;;;17.80;99.90;;;;;;5132905;28;20124;-85
2022/05/07 12:41:43;;;;;;;3.88;0.88;;;17.60;99.90;;;;;;5115566;28;20085;-86
2022/05/07 12:44:11;;;;;;;1.60;0.82;;;17.50;99.90;;;;;;5116131;28;20067;-86
2022/05/07 12:46:37;;;;;;;1.52;0.47;;;17.60;99.90;;;;;;5132642;28;20040;-86
2022/05/07 12:49:04;;;;;;;0.25;0.25;;;17.70;99.90;;;;;;5099292;28;20107;-86
2022/05/07 12:51:32;;;;;;;0.75;0.50;;;18.00;99.90;;;;;;5099190;28;20035;-86
2022/05/07 12:53:59;;;;;;;1.33;0.63;;;18.20;99.90;;;;;;5099472;28;20039;-87
2022/05/07 12:56:26;;;;;;;1.73;0.65;;;18.20;99.90;;;;;;5098926;28;20042;-86
2022/05/07 12:58:53;;;;;;;1.20;0.70;;;18.20;99.90;;;;;;5099464;28;20043;-85
2022/05/07 13:01:20;;;;;;;1.55;0.90;;;18.20;99.90;;;;;;5098776;28;20541;-86
2022/05/07 13:03:46;;;;;;;1.25;0.85;;;18.30;99.90;;;;;;5115069;28;20109;-85
2022/05/07 13:06:13;;;;;;;1.45;0.90;;;18.40;99.90;;;;;;5098917;28;20374;-86
2022/05/07 13:08:40;;;;;;;0.57;0.50;;;18.50;99.90;;;;;;5115411;28;20035;-87
2022/05/07 13:11:08;;;;;;;10.60;0.77;;;18.60;99.90;;;;;;5099082;28;20036;-87
2022/05/07 13:13:34;;;;;;;1.33;0.70;;;18.60;99.90;;;;;;5131866;28;20036;-87
2022/05/07 13:16:01;;;;;;;2.60;0.65;;;18.60;99.90;;;;;;5099063;28;20408;-85
2022/05/07 13:18:28;;;;;;;1.33;0.88;;;18.80;99.90;;;;;;5115150;28;20035;-86
2022/05/07 13:20:55;;;;;;;1.48;0.60;;;18.90;99.90;;;;;;5115362;28;20673;-86
2022/05/07 13:23:22;;;;;;;1.52;0.95;;;18.90;99.90;;;;;;5115530;28;20047;-87
2022/05/07 13:25:49;;;;;;;2.38;1.08;;;19.00;99.90;;;;;;5114894;28;20556;-86
2022/05/07 13:28:15;;;;;;;1.80;0.82;;;19.00;99.90;;;;;;5098551;28;20040;-86
2022/05/07 13:30:42;;;;;;;1.08;0.50;;;19.00;99.90;;;;;;5098130;28;20048;-87
2022/05/07 13:33:09;;;;;;;2.63;1.35;;;18.90;99.90;;;;;;5131954;28;20039;-88
2022/05/07 13:35:36;;;;;;;1.17;0.63;;;18.90;99.90;;;;;;5114608;28;20411;-86
2022/05/07 13:38:02;;;;;;;2.10;0.88;;;18.90;99.90;;;;;;5097834;28;20047;-86
2022/05/07 13:40:29;;;;;;;2.08;1.10;;;18.80;99.90;;;;;;5114594;28;20077;-88